M I D A S
Marine Information and Data Acquisition System
Tripno 216 of the Zeeleeuw from 2002-02-13 08:35:00 to 2002-02-13 15:01:13
Back to CruiseResearch ActivitiesStationsMapUnderway DataData graphs

EquipmentUnitsComment
TimeDGPSUTC
LatitudeDGPSDM.mWGS84
LongitudeDGPSDM.mWGS84
HeadingGyrodeg 
SOGDGPSknotsSpeed over ground
COGDGPSdegCourse over ground
DepthEcho soundermeters200 kHz
Missing or incorrect values are displayed as -999
Navigation data collected by the RV Zeeleeuw from 2002-02-13 08:35:00 to 2002-02-13 15:01:13
                                                                                    Next 1000 lines
Time Latitude Longitude Heading SOG COG Depth
2002-02-13 10:03:46 51°8.332 2°33.993 56.3 0.6 62.7 14.9
2002-02-13 10:03:50 51°8.332 2°33.994 57.2 0.6 62 14.8
2002-02-13 10:03:54 51°8.332 2°33.995 57.8 0.7 67.1 14.8
2002-02-13 10:04:00 51°8.333 2°33.997 57.5 0.7 63.8 14.9
2002-02-13 10:04:05 51°8.333 2°33.998 57.2 0.7 65.5 14.9
2002-02-13 10:04:09 51°8.334 2°33.999 56.2 0.6 61.3 14.8
2002-02-13 10:04:14 51°8.334 2°34.001 55.3 0.7 63.4 14.8
2002-02-13 10:04:20 51°8.334 2°34.002 54.5 0.7 64.2 14.8
2002-02-13 10:04:24 51°8.335 2°34.003 53.5 0.7 64 14.8
2002-02-13 10:04:30 51°8.335 2°34.004 52.2 0.7 58 14.8
2002-02-13 10:04:36 51°8.336 2°34.006 51.2 0.7 56.3 14.9
2002-02-13 10:04:40 51°8.336 2°34.007 49.8 0.7 52.2 14.9
2002-02-13 10:04:45 51°8.337 2°34.008 48.5 0.7 51.8 14.9
2002-02-13 10:04:50 51°8.337 2°34.009 46.7 0.6 44.9 14.9
2002-02-13 10:04:55 51°8.338 2°34.01 45.3 0.6 42.2 14.9
2002-02-13 10:05:00 51°8.339 2°34.011 43.8 0.6 41.8 14.9
2002-02-13 10:05:05 51°8.34 2°34.011 42.3 0.6 34.9 14.9
2002-02-13 10:05:10 51°8.34 2°34.012 40.7 0.7 32.1 15
2002-02-13 10:05:15 51°8.342 2°34.013 37.7 1 27.4 15
2002-02-13 10:05:20 51°8.344 2°34.014 31.5 1.5 20.2 15.1
2002-02-13 10:05:25 51°8.347 2°34.015 24.5 2.1 9.6 15.2
2002-02-13 10:05:30 51°8.351 2°34.014 16.3 2.5 3 15.3
2002-02-13 10:05:34 51°8.355 2°34.014 6.8 3 355.6 15.5
2002-02-13 10:05:40 51°8.361 2°34.011 359 3.5 348.8 15.6
2002-02-13 10:05:45 51°8.367 2°34.009 355.5 3.9 345 15.8
2002-02-13 10:05:50 51°8.373 2°34.006 355.7 4.6 344.6 15.9
2002-02-13 10:05:53 51°8.378 2°34.004 357.7 5.3 346.3 16.1
2002-02-13 10:05:59 51°8.388 2°34.002 2 6.2 350.1 16.3
2002-02-13 10:06:05 51°8.401 2°34 5.2 7 353.8 16.4
2002-02-13 10:06:09 51°8.411 2°33.999 6.3 8.2 356.6 16.5
2002-02-13 10:06:15 51°8.427 2°33.998 7 8.9 357.7 16.7
2002-02-13 10:06:19 51°8.438 2°33.998 7 9.8 358.3 16.7
2002-02-13 10:06:24 51°8.452 2°33.997 5.5 10.3 358.1 16.8
2002-02-13 10:06:29 51°8.468 2°33.995 3.5 10.9 356.1 16.8
2002-02-13 10:06:34 51°8.484 2°33.992 0.5 11.3 353.9 16.8
2002-02-13 10:06:40 51°8.503 2°33.987 359.7 11.7 352.1 16.7
2002-02-13 10:06:45 51°8.52 2°33.983 359.7 11.9 351.9 16.7
2002-02-13 10:06:50 51°8.536 2°33.978 357.5 12.2 350.2 16.7
2002-02-13 10:06:55 51°8.553 2°33.971 353.8 12.3 348.3 16.5
2002-02-13 10:07:00 51°8.569 2°33.962 349 12.5 342.8 16.8
2002-02-13 10:07:05 51°8.586 2°33.95 345.2 12.6 339.3 16.6
2002-02-13 10:07:10 51°8.601 2°33.938 342.2 12.8 335.2 16.7
2002-02-13 10:07:15 51°8.618 2°33.926 342.3 12.9 334.4 16.6
2002-02-13 10:07:20 51°8.634 2°33.914 343.7 13 335.2 16.9
2002-02-13 10:07:25 51°8.651 2°33.904 346.2 13 338.2 16.2
2002-02-13 10:07:30 51°8.668 2°33.896 350.2 12.9 341.3 16.6
2002-02-13 10:07:35 51°8.686 2°33.89 355 12.9 345.7 16
2002-02-13 10:07:40 51°8.703 2°33.886 358.7 12.8 349.8 16.4
2002-02-13 10:07:44 51°8.717 2°33.883 359.5 12.6 351.4 16.2
2002-02-13 10:07:58 51°8.763 2°33.876 2.7 12.1 354.8 15.8
2002-02-13 10:08:02 51°8.776 2°33.875 4.3 11.9 356.4 15.7
2002-02-13 10:08:08 51°8.796 2°33.874 5.5 11.8 357.8 15.7
2002-02-13 10:08:13 51°8.812 2°33.874 6.8 11.7 358.9 15.8
2002-02-13 10:08:17 51°8.825 2°33.874 8 11.7 0.4 15.9
2002-02-13 10:08:23 51°8.845 2°33.875 9.2 11.6 1.5 16.2
2002-02-13 10:08:28 51°8.86 2°33.877 10.7 11.4 2.9 16.3
2002-02-13 10:08:33 51°8.874 2°33.879 12.2 10.6 4.5 16.3
2002-02-13 10:08:38 51°8.888 2°33.881 13.5 9.9 5.5 16.3
2002-02-13 10:08:42 51°8.897 2°33.884 15.5 9.2 7.1 16.1
2002-02-13 10:08:47 51°8.908 2°33.887 16.7 8.5 8.5 15.9
2002-02-13 10:08:53 51°8.921 2°33.89 17.8 8 9.4 15.7
2002-02-13 10:08:58 51°8.931 2°33.893 19 7.4 10.8 15.6
2002-02-13 10:09:02 51°8.938 2°33.896 20.8 6.9 12.3 15.6
2002-02-13 10:09:08 51°8.948 2°33.9 22.7 6.5 13.9 15.6
2002-02-13 10:09:12 51°8.954 2°33.904 24.8 6.2 15.9 15.6
2002-02-13 10:09:17 51°8.961 2°33.907 26.3 5.8 17.9 15.9
2002-02-13 10:09:22 51°8.968 2°33.912 27.2 5.3 19.8 15.8
2002-02-13 10:09:28 51°8.975 2°33.916 28.2 4.8 20.5 16.1
2002-02-13 10:09:33 51°8.98 2°33.92 32.2 4.3 23.1 16.2
2002-02-13 10:09:38 51°8.983 2°33.923 37.8 3.3 27.1 16.3
2002-02-13 10:09:44 51°8.985 2°33.926 45.2 2.4 33.3 16.4
2002-02-13 10:09:48 51°8.986 2°33.927 52.2 1.6 39.6 16.4
2002-02-13 10:09:54 51°8.986 2°33.927 60 0.7 46.7 16.3
2002-02-13 10:09:58 51°8.986 2°33.927 65.8 0.1 53.9 16.4
2002-02-13 10:10:03 51°8.986 2°33.928 70.7   124.9 16.4
2002-02-13 10:10:08 51°8.986 2°33.929 75 0.3 90.6 16.4
2002-02-13 10:10:13 51°8.986 2°33.931 78.3 0.7 85.7 16.5
2002-02-13 10:10:18 51°8.986 2°33.934 80.5 1 89.1 16.4
2002-02-13 10:10:22 51°8.986 2°33.936 82.8 1.1 92.8 16.5
2002-02-13 10:10:27 51°8.986 2°33.938 85 1.1 95.5 16.5
2002-02-13 10:10:33 51°8.985 2°33.941 86.5 1.1 101.2 16.4
2002-02-13 10:10:38 51°8.985 2°33.943 88.2 1.1 104.4 16.4
2002-02-13 10:10:42 51°8.985 2°33.945 89.3 1.1 105.5 16.5
2002-02-13 10:10:48 51°8.984 2°33.948 90 1.1 108.3 16.4
2002-02-13 10:10:53 51°8.984 2°33.95 89.7 1.1 108.5 16.4
2002-02-13 10:10:58 51°8.983 2°33.952 89.2 1.1 109.5 16.3
2002-02-13 10:11:03 51°8.982 2°33.954 88.5 1 109.7 16.3
2002-02-13 10:11:08 51°8.982 2°33.956 87.5 1 111.3 16.4
2002-02-13 10:11:12 51°8.982 2°33.958 86.2 1 111.6 16.4
2002-02-13 10:11:18 51°8.981 2°33.96 84.5 1 111.7 16.4
2002-02-13 10:11:22 51°8.98 2°33.962 83 1 109.3 16.2
2002-02-13 10:11:28 51°8.98 2°33.965 82.2 1 111.2 16.3
2002-02-13 10:11:32 51°8.98 2°33.966 81 1 108.3 16.4
2002-02-13 10:11:38 51°8.979 2°33.969 79.5 1 109.7 16.3
2002-02-13 10:11:42 51°8.979 2°33.97 78.7 1 105.1 16.3
2002-02-13 10:11:47 51°8.978 2°33.972 78.2 1 106.7 16.3
2002-02-13 10:11:53 51°8.978 2°33.975 77.5 1 106.1 16.3
2002-02-13 10:11:58 51°8.977 2°33.977 77.3 1 107 16.3
2002-02-13 10:12:03 51°8.977 2°33.979 77 1 105.5 16.3
2002-02-13 10:12:08 51°8.977 2°33.981 76.5 1 106.2 16.2
2002-02-13 10:12:13 51°8.976 2°33.983 76.3 0.9 105.4 16.2
2002-02-13 10:12:17 51°8.976 2°33.985 76.2 1 105.4 16.3
2002-02-13 10:12:22 51°8.976 2°33.987 75.8 1 103.2 16.3
2002-02-13 10:12:27 51°8.976 2°33.989 75.7 1 105.4 16.3
2002-02-13 10:12:33 51°8.975 2°33.992 75.5 0.9 103 16.4
2002-02-13 10:12:38 51°8.975 2°33.994 75.3 0.9 104.6 16.4
2002-02-13 10:12:43 51°8.974 2°33.996 75.3 0.9 103.2 16.3
2002-02-13 10:12:48 51°8.974 2°33.998 75.3 0.9 104.8 16.2
2002-02-13 10:12:54 51°8.974 2°34 75.3 0.9 105.5 16.2
2002-02-13 10:12:58 51°8.973 2°34.001 75.3 0.9 105.5 16.3
2002-02-13 10:13:04 51°8.973 2°34.004 75.3 0.9 104.6 16.2
2002-02-13 10:13:08 51°8.973 2°34.005 75 0.9 105.2 16.2
2002-02-13 10:13:14 51°8.972 2°34.007 75 0.8 107.2 16.2
2002-02-13 10:13:18 51°8.972 2°34.008 75 0.8 107.2 16.3
2002-02-13 10:13:23 51°8.972 2°34.01 75.3 0.8 109.1 16.2
2002-02-13 10:13:28 51°8.971 2°34.012 75 0.8 108.6 16.2
2002-02-13 10:13:33 51°8.971 2°34.014 75.2 0.8 109.2 16.3
2002-02-13 10:13:37 51°8.971 2°34.015 75.3 0.8 108.6 16.3
2002-02-13 10:13:43 51°8.97 2°34.017 75.5 0.8 111.7 16.2
2002-02-13 10:13:48 51°8.97 2°34.018 75.5 0.8 110.3 16.1
2002-02-13 10:13:52 51°8.97 2°34.02 75.3 0.8 112.5 16.2
2002-02-13 10:13:57 51°8.97 2°34.021 74.7 0.8 109.5 16.2
2002-02-13 10:14:02 51°8.969 2°34.023 74.7 0.8 112.5 16.2
2002-02-13 10:14:08 51°8.968 2°34.025 74.5 0.7 110.7 16.1
2002-02-13 10:14:12 51°8.968 2°34.026 74.3 0.7 112.1 16.2
2002-02-13 10:14:18 51°8.968 2°34.027 74.5 0.7 113.4 16.2
2002-02-13 10:14:23 51°8.967 2°34.029 74.2 0.7 113.2 16.2
2002-02-13 10:14:28 51°8.967 2°34.03 74 0.7 114.8 16.2
2002-02-13 10:14:33 51°8.967 2°34.032 73.8 0.7 110.4 16.1
2002-02-13 10:14:38 51°8.966 2°34.033 74.2 0.7 116.7 16.2
2002-02-13 10:14:42 51°8.966 2°34.034 73.8 0.7 113.6 16.3
2002-02-13 10:14:48 51°8.965 2°34.036 74.2 0.7 118.8 16.2
2002-02-13 10:14:52 51°8.965 2°34.037 74 0.6 113.1 16.1
2002-02-13 10:14:58 51°8.964 2°34.038 74.3 0.7 118.5 16.1
2002-02-13 10:15:02 51°8.964 2°34.039 74.3 0.7 118.4 16.1
2002-02-13 10:15:08 51°8.963 2°34.041 74.3 0.7 119.1 16.1
2002-02-13 10:15:14 51°8.963 2°34.042 74 0.6 117.9 16.2
2002-02-13 10:15:18 51°8.962 2°34.043 73.8 0.6 119.6 16.2
2002-02-13 10:15:22 51°8.962 2°34.044 74 0.6 117.7 16.2
2002-02-13 10:15:27 51°8.962 2°34.046 73.8 0.6 117.7 16.2
2002-02-13 10:15:32 51°8.961 2°34.047 73.8 0.6 118.3 16.2
2002-02-13 10:15:37 51°8.961 2°34.048 73.7 0.6 120.7 16.2
2002-02-13 10:15:42 51°8.96 2°34.05 73.8 0.8 112.6 16.1
2002-02-13 10:15:48 51°8.961 2°34.054 73.8 1.2 89 16.1
2002-02-13 10:15:52 51°8.961 2°34.058 73.7 2 84.6 16.1
2002-02-13 10:15:58 51°8.962 2°34.066 71.3 2.7 76.1 16
2002-02-13 10:16:04 51°8.965 2°34.077 68.3 3.5 73.3 16.1
2002-02-13 10:16:08 51°8.968 2°34.084 62.3 4.5 64.8 15.9
2002-02-13 10:16:14 51°8.973 2°34.096 57.2 5.1 60 15.7
2002-02-13 10:16:18 51°8.978 2°34.104 51.2 5.8 51.6 15.7
2002-02-13 10:16:24 51°8.986 2°34.116 45.5 6.4 45.3 15.8
2002-02-13 10:16:28 51°8.993 2°34.122 38.7 6.8 38.1 15.9
2002-02-13 10:16:32 51°9 2°34.129 32.8 7.1 33 16.3
2002-02-13 10:16:38 51°9.011 2°34.136 26.5 7.4 24.7 16.5
2002-02-13 10:16:42 51°9.02 2°34.14 20 7.7 18.1 16.7
2002-02-13 10:16:48 51°9.033 2°34.142 14.5 7.9 11.3 16.8
2002-02-13 10:16:52 51°9.042 2°34.143 8.2 8.1 4.8 16.8
2002-02-13 10:16:58 51°9.056 2°34.141 1.8 8.3 357.7 16.9
2002-02-13 10:17:02 51°9.065 2°34.138 355.8 8.4 351.2 16.9
2002-02-13 10:17:08 51°9.079 2°34.131 349.3 8.6 344.5 17.3
2002-02-13 10:17:13 51°9.09 2°34.122 343.7 8.7 339.8 17.6
2002-02-13 10:17:17 51°9.099 2°34.114 337.3 8.9 332.3 17.3
2002-02-13 10:17:22 51°9.109 2°34.103 331.2 9.1 326.1 17.4
2002-02-13 10:17:28 51°9.12 2°34.086 325 9.2 319.4 17.4
2002-02-13 10:17:32 51°9.127 2°34.073 318 9.3 314 17.5
2002-02-13 10:17:38 51°9.135 2°34.052 311.5 9.4 306.4 17.9
2002-02-13 10:17:42 51°9.14 2°34.037 305 9.5 300 18.2
2002-02-13 10:17:48 51°9.146 2°34.013 298.5 9.6 293.8 18.4
2002-02-13 10:17:52 51°9.149 2°33.996 291.7 9.7 288.6 18.2
2002-02-13 10:17:58 51°9.151 2°33.97 285.2 9.8 281.1 18.3
2002-02-13 10:18:02 51°9.152 2°33.953 278.7 9.9 274.9 18.5
2002-02-13 10:18:08 51°9.15 2°33.927 271.8 9.9 268.2 18.7
2002-02-13 10:18:12 51°9.148 2°33.909 265.3 9.9 263.5 18.7
2002-02-13 10:18:18 51°9.143 2°33.884 259 10 255.9 18.7
2002-02-13 10:18:22 51°9.139 2°33.867 253.2 10.1 250.8 18.5
2002-02-13 10:18:26 51°9.134 2°33.851 248.3 10.2 245.9 18.5
2002-02-13 10:18:32 51°9.126 2°33.827 245 10.4 242.8 18.4
2002-02-13 10:18:38 51°9.116 2°33.803 243.2 10.5 240.1 18.3
2002-02-13 10:18:42 51°9.11 2°33.787 242.7 10.7 238.9 18.3
2002-02-13 10:18:47 51°9.102 2°33.766 242 10.8 238.4 18.3
2002-02-13 10:18:53 51°9.092 2°33.742 241.5 10.9 237.8 18.2
2002-02-13 10:18:58 51°9.084 2°33.722 240.8 11 237.3 18.3
2002-02-13 10:19:03 51°9.075 2°33.701 240.8 11 236.8 18.2
2002-02-13 10:19:08 51°9.067 2°33.681 241.5 11.1 237.3 18.2
2002-02-13 10:19:12 51°9.061 2°33.664 241.2 11.1 237.6 18.3
2002-02-13 10:19:18 51°9.05 2°33.639 240.7 11.2 237 18.3
2002-02-13 10:19:22 51°9.044 2°33.623 240.7 11.2 237.3 18.3
2002-02-13 10:19:28 51°9.033 2°33.598 241.3 11.2 236.9 18.3
2002-02-13 10:19:32 51°9.027 2°33.58 242.8 11.2 238.4 18.3
2002-02-13 10:19:37 51°9.019 2°33.559 244.8 11.2 239.3 18.4
2002-02-13 10:19:44 51°9.009 2°33.528 246.3 11.3 242 18.4
2002-02-13 10:19:48 51°9.003 2°33.511 247.3 11.3 242.4 18.4
2002-02-13 10:19:52 51°8.998 2°33.493 247.3 11.3 243.1 18.5
2002-02-13 10:19:58 51°8.989 2°33.467 246.8 11.3 242.6 18.5
2002-02-13 10:20:02 51°8.983 2°33.449 246.5 11.3 242.4 18.5
2002-02-13 10:20:08 51°8.974 2°33.423 245.5 11.3 241.7 18.5
2002-02-13 10:20:12 51°8.968 2°33.405 245.3 11.3 241.5 18.5
2002-02-13 10:20:18 51°8.958 2°33.379 244.5 11.3 240.5 18.5
2002-02-13 10:20:22 51°8.952 2°33.362 243.3 11.3 240 18.5
2002-02-13 10:20:28 51°8.942 2°33.336 242.8 11.3 238.7 18.5
2002-02-13 10:20:32 51°8.935 2°33.32 241.5 11.3 238 18.5
2002-02-13 10:20:38 51°8.925 2°33.294 241.2 11.3 237.6 18.5
2002-02-13 10:20:42 51°8.919 2°33.278 242.3 11.3 237.6 18.6
2002-02-13 10:20:49 51°8.908 2°33.247 244.3 11.3 239.2 18.6
2002-02-13 10:20:54 51°8.9 2°33.226 244.7 11.3 240.1 18.6
2002-02-13 10:20:59 51°8.892 2°33.204 244.5 11.3 240.5 18.6
2002-02-13 10:21:02 51°8.887 2°33.191 243.8 11.3 239.7 18.7
2002-02-13 10:21:09 51°8.876 2°33.161 243.5 11.3 239.1 18.7
2002-02-13 10:21:13 51°8.869 2°33.144 244 11.3 239.2 18.7
2002-02-13 10:21:18 51°8.862 2°33.123 244.8 11.2 240.1 18.7
2002-02-13 10:21:23 51°8.854 2°33.101 244.7 11.2 240.2 18.7
2002-02-13 10:21:26 51°8.85 2°33.088 244.3 11.3 240.3 18.7
2002-02-13 10:21:33 51°8.838 2°33.058 244.7 11.2 240.1 18.8
2002-02-13 10:21:38 51°8.831 2°33.037 245 11.2 240.6 18.8
2002-02-13 10:21:42 51°8.825 2°33.019 246.2 11.2 241.2 18.7
2002-02-13 10:21:49 51°8.815 2°32.989 246.5 11.2 241.5 18.7
2002-02-13 10:21:54 51°8.808 2°32.967 246.8 11.2 242.2 18.7
2002-02-13 10:21:59 51°8.8 2°32.945 246 11.2 241.4 18.7
2002-02-13 10:22:03 51°8.794 2°32.928 246.2 11.2 241.7 18.7
2002-02-13 10:22:09 51°8.785 2°32.902 246 11.2 241.1 18.8
2002-02-13 10:22:14 51°8.778 2°32.88 246.5 11.2 241.3 18.8
2002-02-13 10:22:19 51°8.771 2°32.858 246.8 11.2 241.9 18.8
2002-02-13 10:22:23 51°8.765 2°32.841 247.3 11.2 242.3 18.9
2002-02-13 10:22:28 51°8.758 2°32.819 246.5 11.2 241.9 18.9
2002-02-13 10:22:34 51°8.749 2°32.793 246.3 11.2 241.6 19
2002-02-13 10:22:39 51°8.742 2°32.771 247.2 11.2 242 19.1
2002-02-13 10:22:42 51°8.737 2°32.758 247.8 11.2 242.6 19.2
2002-02-13 10:22:49 51°8.728 2°32.727 248.7 11.2 243.4 19.2
2002-02-13 10:22:54 51°8.721 2°32.704 249.7 11.2 244.4 19.2
2002-02-13 10:22:59 51°8.715 2°32.682 250.8 11.2 245.3 19.2
2002-02-13 10:23:04 51°8.709 2°32.659 252 11.2 246.5 19.2
2002-02-13 10:23:09 51°8.703 2°32.636 253.3 11.2 247.5 19.3
2002-02-13 10:23:14 51°8.698 2°32.613 254.7 11.2 248.6 19.2
2002-02-13 10:23:19 51°8.693 2°32.59 255.3 11.1 249.8 19.2
2002-02-13 10:23:24 51°8.688 2°32.567 256.8 11.1 250.5 19.2
2002-02-13 10:23:29 51°8.683 2°32.543 257.3 11.1 251.3 19.3
2002-02-13 10:23:33 51°8.678 2°32.525 256 11.1 251.1 19.3
2002-02-13 10:23:38 51°8.673 2°32.502 254.8 11.1 250 19.3
2002-02-13 10:23:42 51°8.669 2°32.484 254.2 11.1 249.1 19.3
2002-02-13 10:23:48 51°8.662 2°32.457 253.3 11 248.3 19.4
2002-02-13 10:23:54 51°8.655 2°32.43 252.5 11 247.6 19.4
2002-02-13 10:23:58 51°8.649 2°32.412 251.8 11 246.6 19.4
2002-02-13 10:24:02 51°8.645 2°32.395 251 11 246.2 19.3
2002-02-13 10:24:09 51°8.636 2°32.364 250.7 11 245.7 19.4
2002-02-13 10:24:14 51°8.629 2°32.341 250.7 11 245.8 19.3
2002-02-13 10:24:19 51°8.623 2°32.319 250.3 11 245.4 19.3
2002-02-13 10:24:23 51°8.618 2°32.301 250.2 11 245.7 19.2
2002-02-13 10:24:29 51°8.61 2°32.275 250.2 11 245.3 19.2
2002-02-13 10:24:34 51°8.604 2°32.253 249.8 11 245.4 19.1
2002-02-13 10:24:39 51°8.597 2°32.231 249.5 11 245.1 19.1
2002-02-13 10:24:43 51°8.592 2°32.213 249.5 11 245 19.1
2002-02-13 10:24:49 51°8.584 2°32.187 249 11 244.5 19.1
2002-02-13 10:24:53 51°8.579 2°32.17 248.7 11 244.2 19.1
2002-02-13 10:24:58 51°8.572 2°32.148 248.2 11 243.7 19.1
2002-02-13 10:25:02 51°8.567 2°32.131 247.8 11.1 243.4 19.1
2002-02-13 10:25:09 51°8.557 2°32.1 247.5 11.1 243.2 19.1
2002-02-13 10:25:13 51°8.551 2°32.083 247.3 11.1 242.9 19.1
2002-02-13 10:25:18 51°8.544 2°32.062 246.8 11 242.1 18.7
2002-02-13 10:25:24 51°8.535 2°32.036 246.3 11 242 18.9
2002-02-13 10:25:29 51°8.528 2°32.015 245.8 11.1 241.3 18.9
2002-02-13 10:25:33 51°8.522 2°31.997 245.5 11 241.7 18.8
2002-02-13 10:25:38 51°8.514 2°31.977 244 11 240.1 18.8
2002-02-13 10:25:44 51°8.504 2°31.952 241.5 11 238.9 18.8
2002-02-13 10:25:49 51°8.496 2°31.932 239.8 10.9 236.4 18.8
2002-02-13 10:25:54 51°8.487 2°31.912 238.7 11 235.4 18.7
2002-02-13 10:25:59 51°8.478 2°31.892 239.7 11.1 235.5 18.7
2002-02-13 10:26:04 51°8.47 2°31.872 241.8 11 236.1 18.6
2002-02-13 10:26:09 51°8.463 2°31.85 244 11 239.2 18.5
2002-02-13 10:26:13 51°8.457 2°31.833 246.2 11 240.5 18.4
2002-02-13 10:26:18 51°8.45 2°31.811 248.3 11 242.9 18.4
2002-02-13 10:26:24 51°8.443 2°31.785 250.7 11 245.2 18.4
2002-02-13 10:26:29 51°8.438 2°31.762 252.8 11 247.4 18.3
2002-02-13 10:26:34 51°8.432 2°31.739 254.2 11 248.7 18.3
2002-02-13 10:26:39 51°8.427 2°31.716 254.8 10.9 249.7 18.2
2002-02-13 10:26:43 51°8.423 2°31.698 255.8 11 250.5 18.1
2002-02-13 10:26:48 51°8.418 2°31.675 256.3 11 251.4 18
2002-02-13 10:26:53 51°8.414 2°31.652 257 11 251.9 17.8
2002-02-13 10:26:58 51°8.409 2°31.629 257.2 11 252.3 17.6
2002-02-13 10:27:02 51°8.405 2°31.611 256.2 10.9 251.8 17.5
2002-02-13 10:27:08 51°8.399 2°31.583 255.2 11 251 17.4
2002-02-13 10:27:12 51°8.395 2°31.565 254 11 249.8 17.3
2002-02-13 10:27:18 51°8.388 2°31.539 251.8 10.9 248.2 17
2002-02-13 10:27:22 51°8.383 2°31.521 250.5 11 246.2 16.9
2002-02-13 10:27:28 51°8.375 2°31.495 248.2 10.9 244.7 16.7
2002-02-13 10:27:33 51°8.367 2°31.474 246 10.9 242.5 16.6
2002-02-13 10:27:38 51°8.36 2°31.453 243.7 10.9 240.7 16.5
2002-02-13 10:27:42 51°8.353 2°31.437 242 11 239.2 16.5
2002-02-13 10:27:48 51°8.344 2°31.412 243 11 238.6 16.2
2002-02-13 10:27:52 51°8.338 2°31.395 246 11 239.9 16.2
2002-02-13 10:27:58 51°8.33 2°31.369 248.8 10.9 242.8 16
2002-02-13 10:28:02 51°8.325 2°31.351 250.7 10.9 245.1 15.8
2002-02-13 10:28:08 51°8.319 2°31.326 252.5 10.6 246.7 15.6
2002-02-13 10:28:12 51°8.315 2°31.31 254.3 10.1 247.9 15.3
2002-02-13 10:28:18 51°8.31 2°31.287 256.5 9.2 249.7 15.1
2002-02-13 10:28:22 51°8.307 2°31.274 259.3 8.4 251.7 14.8
2002-02-13 10:28:28 51°8.303 2°31.256 258.7 7.5 252.5 14.7
2002-02-13 10:28:32 51°8.301 2°31.246 254 6.7 250.2 14.5
2002-02-13 10:28:38 51°8.296 2°31.234 246.7 5.7 244 14.4
2002-02-13 10:28:42 51°8.293 2°31.228 239.2 5 238.1 14.5
2002-02-13 10:28:48 51°8.289 2°31.221 232 4.1 229.1 14.4
2002-02-13 10:28:53 51°8.285 2°31.217 224.5 3.6 222.6 14.5
2002-02-13 10:28:58 51°8.282 2°31.214 218.5 2.8 213.3 14.6
2002-02-13 10:29:02 51°8.28 2°31.212 212.8 2.4 207.9 14.7
2002-02-13 10:29:08 51°8.277 2°31.21 208.3 1.9 203.8 14.7
2002-02-13 10:29:12 51°8.276 2°31.21 204.3 1.3 198.4 14.8
2002-02-13 10:29:18 51°8.275 2°31.21 200.7 0.9 192.5 14.8
2002-02-13 10:29:22 51°8.275 2°31.21 197.2 0.5 179 14.8
2002-02-13 10:29:28 51°8.274 2°31.21 194.2 0.4 166.3 14.8
2002-02-13 10:29:32 51°8.273 2°31.21 191.3 0.5 165.1 14.9
2002-02-13 10:29:38 51°8.271 2°31.21 187.8 0.9 173 15
2002-02-13 10:29:42 51°8.27 2°31.211 183.2 1.3 167.8 15.1
2002-02-13 10:29:48 51°8.266 2°31.212 175.5 1.9 169.7 15.3
2002-02-13 10:29:52 51°8.263 2°31.214 166.5 2.5 164.1 15.5
2002-02-13 10:29:58 51°8.258 2°31.217 157.8 3 158.2 15.8
2002-02-13 10:30:02 51°8.255 2°31.221 150.2 3.4 151.6 16.1
2002-02-13 10:30:09 51°8.249 2°31.228 143 3.7 144.2 16.3
2002-02-13 10:30:13 51°8.246 2°31.233 136 3.9 139.8 16.6
2002-02-13 10:30:18 51°8.242 2°31.241 128.7 4.2 131.6 16.9
2002-02-13 10:30:22 51°8.239 2°31.247 121.2 4.4 124.8 17.1
2002-02-13 10:30:28 51°8.237 2°31.259 112.7 4.5 116.4 17.3
2002-02-13 10:30:32 51°8.235 2°31.267 104.2 4.6 108.2 17.5
2002-02-13 10:30:38 51°8.235 2°31.279 95.5 4.7 99.4 17.6
2002-02-13 10:30:42 51°8.235 2°31.287 86.8 4.7 90.8 17.7
2002-02-13 10:30:48 51°8.237 2°31.3 78.5 4.7 81.6 17.8
2002-02-13 10:30:53 51°8.24 2°31.309 70 4.8 72.3 17.8
2002-02-13 10:30:58 51°8.243 2°31.318 61.7 4.8 63.4 17.8
2002-02-13 10:31:02 51°8.247 2°31.325 52.7 4.8 54.4 17.8
2002-02-13 10:31:09 51°8.254 2°31.335 43.5 4.8 45.2 17.9
2002-02-13 10:31:14 51°8.26 2°31.34 35.3 4.9 36 17.8
2002-02-13 10:31:18 51°8.265 2°31.343 26.8 4.9 26.9 17.6
2002-02-13 10:31:22 51°8.271 2°31.345 18 4.9 17.9 17.5
2002-02-13 10:31:29 51°8.281 2°31.346 10.2 5 9.1 17.4
2002-02-13 10:31:33 51°8.286 2°31.344 1.5 5 1.6 17.1
2002-02-13 10:31:38 51°8.293 2°31.342 352.3 5.1 350.3 16.9
2002-02-13 10:31:42 51°8.299 2°31.338 343.8 5.2 341.1 16.5
2002-02-13 10:31:49 51°8.307 2°31.329 334.7 5.2 332.2 16.3
2002-02-13 10:31:54 51°8.313 2°31.321 326.5 5.3 321.8 15.9
2002-02-13 10:31:58 51°8.317 2°31.313 319.2 5.5 315.7 15.5
2002-02-13 10:32:04 51°8.323 2°31.302 316 5.6 311.8 15.3
2002-02-13 10:32:08 51°8.327 2°31.295 314.8 5.5 310.6 14.8
2002-02-13 10:32:13 51°8.331 2°31.287 314.3 5.2 311.1 14.5
2002-02-13 10:32:18 51°8.335 2°31.28 314 4.7 312 14.3
2002-02-13 10:32:22 51°8.338 2°31.275 316.5 4.1 314.3 14.1
2002-02-13 10:32:28 51°8.342 2°31.27 322 3.4 317.4 13.8
2002-02-13 10:32:33 51°8.345 2°31.267 329.3 2.9 323.1 13.6
2002-02-13 10:32:38 51°8.347 2°31.266 335 2.2 330.8 13.5
2002-02-13 10:32:43 51°8.349 2°31.265 341.8 1.5 337.5 13.4
2002-02-13 10:32:49 51°8.349 2°31.265 347 0.8 346.8 13.4
2002-02-13 10:32:53 51°8.349 2°31.265 351.3 0.4 355.9 13.4
2002-02-13 10:32:58 51°8.349 2°31.265 355.2 0.1 74.2 13.4
2002-02-13 10:33:03 51°8.349 2°31.266 357.8 0.2 99.7 13.5
2002-02-13 10:33:09 51°8.349 2°31.266 0.2 0.2 95.9 13.5
2002-02-13 10:33:14 51°8.349 2°31.267 2 0.2 87 13.5
2002-02-13 10:33:18 51°8.349 2°31.268 4.2 0.3 77.3 13.5
2002-02-13 10:33:22 51°8.349 2°31.268 6.5 0.3 71.2 13.5
2002-02-13 10:33:29 51°8.35 2°31.269 8.8 0.3 70.6 13.6
2002-02-13 10:33:34 51°8.35 2°31.27 10.8 0.3 67.6 13.6
2002-02-13 10:33:38 51°8.35 2°31.27 13 0.3 64.7 13.7
2002-02-13 10:33:42 51°8.35 2°31.271 15 0.4 64.5 13.7
2002-02-13 10:33:48 51°8.35 2°31.272 17 0.4 62.9 13.6
2002-02-13 10:33:54 51°8.351 2°31.273 19.2 0.5 64.8 13.6
2002-02-13 10:33:59 51°8.351 2°31.274 21.5 0.5 62.5 13.6
2002-02-13 10:34:04 51°8.351 2°31.275 24.2 0.5 64.8 -999
2002-02-13 10:34:10 51°8.352 2°31.276 27.5 0.6 64.3 -999
2002-02-13 10:34:15 51°8.352 2°31.277 30.8 0.6 64.4 -999
2002-02-13 10:34:20 51°8.352 2°31.278 33.7 0.6 65.1 -999
2002-02-13 10:34:24 51°8.353 2°31.28 36.3 0.6 65.2 -999
2002-02-13 10:34:30 51°8.353 2°31.281 39.7 0.7 68.1 -999
2002-02-13 10:34:35 51°8.354 2°31.283 42.7 0.7 69.7 -999
2002-02-13 10:34:40 51°8.354 2°31.285 45.3 0.8 71.3 -999
2002-02-13 10:34:45 51°8.354 2°31.286 48.3 0.8 73.4 -999
2002-02-13 10:34:50 51°8.355 2°31.288 51.3 0.8 73.6 -999
2002-02-13 10:34:54 51°8.355 2°31.29 53.8 0.9 75.6 -999
2002-02-13 10:34:58 51°8.355 2°31.291 56.7 0.9 72.1 14.1
2002-02-13 10:35:04 51°8.355 2°31.293 59 0.9 77.8 13.9
2002-02-13 10:35:09 51°8.355 2°31.295 61.2 0.9 76.9 14.2
2002-02-13 10:35:13 51°8.355 2°31.297 63.7 0.9 82.2 14.3
2002-02-13 10:35:19 51°8.356 2°31.299 65.8 0.9 81 14.3
2002-02-13 10:35:23 51°8.356 2°31.301 67.7 0.9 85.7 14.3
2002-02-13 10:35:29 51°8.356 2°31.303 69.5 0.9 82.5 14.3
2002-02-13 10:35:32 51°8.356 2°31.305 71.3 1 87.7 14.4
2002-02-13 10:35:38 51°8.356 2°31.308 72.5 1 85.2 14.5
2002-02-13 10:35:42 51°8.356 2°31.31 73.7 1.1 86.3 14.5
2002-02-13 10:35:48 51°8.356 2°31.313 74.5 1.2 85.9 14.6
2002-02-13 10:35:53 51°8.357 2°31.316 75.5 1.2 84.6 14.7
2002-02-13 10:35:58 51°8.357 2°31.319 76.5 1.3 86.2 14.7
2002-02-13 10:36:04 51°8.357 2°31.322 77.3 1.4 84.8 14.7
2002-02-13 10:36:09 51°8.357 2°31.326 77.8 1.5 87.4 14.8
2002-02-13 10:36:13 51°8.357 2°31.328 78.3 1.5 85.3 14.9
2002-02-13 10:36:18 51°8.357 2°31.332 79 1.5 86.2 15
2002-02-13 10:36:22 51°8.357 2°31.334 79.7 1.6 84.6 15
2002-02-13 10:36:29 51°8.358 2°31.34 80.3 1.7 86.3 15
2002-02-13 10:36:32 51°8.358 2°31.342 80.5 1.7 85 15.1
2002-02-13 10:36:38 51°8.358 2°31.347 80.8 1.8 86.2 15.3
2002-02-13 10:36:42 51°8.358 2°31.35 81.2 1.8 85.5 15.4
2002-02-13 10:36:48 51°8.358 2°31.355 81.2 1.9 86 15.5
2002-02-13 10:36:54 51°8.358 2°31.36 81.3 1.9 84.9 15.5
2002-02-13 10:36:58 51°8.359 2°31.364 81.2 2 85.8 15.6
2002-02-13 10:37:02 51°8.359 2°31.367 81.2 2 84.9 15.7
2002-02-13 10:37:09 51°8.359 2°31.373 81 2 85.5 15.8
2002-02-13 10:37:12 51°8.359 2°31.376 80.3 2 84.6 15.9
2002-02-13 10:37:18 51°8.359 2°31.381 80.3 2 85.6 15.9
2002-02-13 10:37:22 51°8.36 2°31.385 80.3 2 85.3 16
2002-02-13 10:37:28 51°8.36 2°31.39 80.2 2 86.2 16.1
2002-02-13 10:37:34 51°8.36 2°31.396 79.7 2 84.6 16.1
2002-02-13 10:37:38 51°8.36 2°31.399 79.7 2 85.5 16.2
2002-02-13 10:37:42 51°8.361 2°31.402 79.5 1.9 85.1 16.2
2002-02-13 10:37:48 51°8.361 2°31.407 79 1.9 84.4 16.4
2002-02-13 10:37:53 51°8.361 2°31.412 79 1.9 84.9 16.5
2002-02-13 10:37:58 51°8.361 2°31.416 79 1.9 84.5 16.5
2002-02-13 10:38:04 51°8.361 2°31.42 78.7 1.8 84.9 16.6
2002-02-13 10:38:09 51°8.362 2°31.424 78.5 1.8 85.3 16.6
2002-02-13 10:38:14 51°8.362 2°31.428 78.2 1.8 84.5 16.7
2002-02-13 10:38:18 51°8.362 2°31.431 78 1.7 84.6 16.7
2002-02-13 10:38:22 51°8.362 2°31.434 78 1.7 85.1 16.8
2002-02-13 10:38:28 51°8.363 2°31.438 77.3 1.7 83.3 16.7
2002-02-13 10:38:33 51°8.363 2°31.442 77 1.6 82.9 16.8
2002-02-13 10:38:38 51°8.363 2°31.446 76.3 1.6 82.8 16.8
2002-02-13 10:38:42 51°8.363 2°31.448 75.7 1.6 82.7 16.8
2002-02-13 10:38:48 51°8.364 2°31.453 75.2 1.6 82.8 16.8
2002-02-13 10:38:54 51°8.364 2°31.457 74.3 1.6 82.6 16.9
2002-02-13 10:38:57 51°8.364 2°31.459 74 1.6 83.5 16.9
2002-02-13 10:39:04 51°8.364 2°31.463 73.5 1.5 82.5 17
2002-02-13 10:39:09 51°8.364 2°31.467 73.3 1.5 83.3 17.1
2002-02-13 10:39:14 51°8.365 2°31.47 73.2 1.5 82.3 17.2
2002-02-13 10:39:18 51°8.365 2°31.472 72.8 1.5 82.6 17.2
2002-02-13 10:39:22 51°8.365 2°31.475 72.3 1.4 82 17.3
2002-02-13 10:39:29 51°8.365 2°31.479 72 1.4 83.8 17.3
2002-02-13 10:39:33 51°8.366 2°31.482 71.8 1.4 81.5 17.3
2002-02-13 10:39:38 51°8.366 2°31.485 72.2 1.4 83.1 17.4
2002-02-13 10:39:43 51°8.366 2°31.487 71.8 1.3 80.7 17.4
2002-02-13 10:39:48 51°8.366 2°31.49 71.7 1.3 82.3 17.4
2002-02-13 10:39:54 51°8.367 2°31.494 71.3 1.3 81 17.5
2002-02-13 10:39:58 51°8.367 2°31.496 71.2 1.3 81.5 17.5
2002-02-13 10:40:04 51°8.367 2°31.499 70.8 1.2 80.5 17.5
2002-02-13 10:40:09 51°8.368 2°31.502 70.7 1.2 81.6 17.6
2002-02-13 10:40:14 51°8.368 2°31.504 70.3 1.2 80.5 17.7
2002-02-13 10:40:18 51°8.368 2°31.506 70.2 1.2 82 17.7
2002-02-13 10:40:22 51°8.369 2°31.508 69.8 1.2 80.5 17.6
2002-02-13 10:40:29 51°8.369 2°31.511 70 1.2 81.9 17.7
2002-02-13 10:40:33 51°8.369 2°31.513 69.3 1.2 79.8 17.7
2002-02-13 10:40:38 51°8.369 2°31.516 69.5 1.2 82.2 17.7
2002-02-13 10:40:44 51°8.37 2°31.519 69.2 1.2 79.3 17.7
2002-02-13 10:40:48 51°8.37 2°31.521 68.7 1.1 80.7 17.7
2002-02-13 10:40:52 51°8.37 2°31.522 68.5 1.1 79.2 17.7
2002-02-13 10:40:58 51°8.371 2°31.525 68.2 1.1 79 17.7
2002-02-13 10:41:02 51°8.371 2°31.527 67.5 1.1 80.1 17.8
2002-02-13 10:41:09 51°8.371 2°31.53 67.3 1.1 79.7 17.9
2002-02-13 10:41:14 51°8.371 2°31.533 67.2 1.1 78.8 17.9
2002-02-13 10:41:18 51°8.372 2°31.535 66.8 1.1 80.4 17.9
2002-02-13 10:41:22 51°8.372 2°31.536 66.3 1.1 78.8 17.9
2002-02-13 10:41:28 51°8.372 2°31.539 66.2 1 81.1 17.9
2002-02-13 10:41:32 51°8.372 2°31.541 66.3 1 80 18
2002-02-13 10:41:38 51°8.373 2°31.544 65.8 1 79.4 18
2002-02-13 10:41:43 51°8.373 2°31.546 65.7 1 81.4 18
2002-02-13 10:41:48 51°8.374 2°31.548 65.5 1 78.7 18
2002-02-13 10:41:54 51°8.374 2°31.551 65.7 1 82 18
2002-02-13 10:41:58 51°8.375 2°31.553 65.3 1 79.2 17.9
2002-02-13 10:42:02 51°8.375 2°31.554 65.7 1 82.6 18
2002-02-13 10:42:08 51°8.375 2°31.557 65.2 1 79.2 18
2002-02-13 10:42:14 51°8.375 2°31.559 65.3 1 82.4 18.1
2002-02-13 10:42:18 51°8.376 2°31.561 65.2 1 79.7 18.1
2002-02-13 10:42:22 51°8.376 2°31.563 64.8 1 82.5 18.1
2002-02-13 10:42:28 51°8.376 2°31.565 64.7 1 80.4 18.2
2002-02-13 10:42:32 51°8.376 2°31.567 64.3 1 79 18.2
2002-02-13 10:42:38 51°8.377 2°31.571 64 1.2 77.4 18.1
2002-02-13 10:42:42 51°8.377 2°31.573 64.3 1.3 76.1 18.2
2002-02-13 10:42:49 51°8.378 2°31.577 64.3 1.4 74.3 18.1
2002-02-13 10:42:54 51°8.379 2°31.581 64.8 1.5 72.4 18.2
2002-02-13 10:42:58 51°8.379 2°31.583 65 1.6 72.1 18.3
2002-02-13 10:43:02 51°8.38 2°31.586 65.3 1.5 72.9 18.2
2002-02-13 10:43:08 51°8.38 2°31.588 65.3 1.2 75.2 18.2
2002-02-13 10:43:12 51°8.38 2°31.59 64.3 1 79.1 18.2
2002-02-13 10:43:18 51°8.38 2°31.591 64.3 0.6 92.4 18.3
2002-02-13 10:43:22 51°8.38 2°31.592 65 0.5 98.5 18.3
2002-02-13 10:43:28 51°8.38 2°31.593 65.5 0.6 103.5 18.3
2002-02-13 10:43:33 51°8.379 2°31.595 66 0.6 101.6 18.3
2002-02-13 10:43:38 51°8.379 2°31.596 66.2 0.6 101.4 18.3
2002-02-13 10:43:44 51°8.379 2°31.598 66.3 0.6 100.6 18.3
2002-02-13 10:43:49 51°8.379 2°31.599 66.7 0.6 102.3 18.4
2002-02-13 10:43:53 51°8.379 2°31.6 67.2 0.6 102.8 18.4
2002-02-13 10:43:58 51°8.379 2°31.601 67.3 0.6 103.2 18.5
2002-02-13 10:44:02 51°8.378 2°31.602 67.8 0.6 103.6 18.5
2002-02-13 10:44:08 51°8.378 2°31.604 67.8 0.6 101.8 18.5
2002-02-13 10:44:12 51°8.378 2°31.605 68.2 0.6 101.7 18.5
2002-02-13 10:44:18 51°8.378 2°31.607 68.5 0.6 102.9 18.5
2002-02-13 10:44:22 51°8.378 2°31.608 69 0.6 101.7 18.5
2002-02-13 10:44:28 51°8.378 2°31.609 69.3 0.6 102 18.4
2002-02-13 10:44:34 51°8.377 2°31.611 69.3 0.6 100.3 18.5
2002-02-13 10:44:38 51°8.377 2°31.612 69.7 0.6 101 18.5
2002-02-13 10:44:42 51°8.377 2°31.613 70 0.6 99.7 18.5
2002-02-13 10:44:48 51°8.377 2°31.615 70.2 0.7 102 18.5
2002-02-13 10:44:52 51°8.376 2°31.616 70 0.6 100.1 18.5
2002-02-13 10:44:58 51°8.376 2°31.617 70.5 0.7 101.1 18.5
2002-02-13 10:45:02 51°8.376 2°31.619 70.7 0.7 102.4 18.6
2002-02-13 10:45:08 51°8.376 2°31.62 70.8 0.7 103.5 18.6
2002-02-13 10:45:12 51°8.375 2°31.621 71 0.7 104.2 18.7
2002-02-13 10:45:18 51°8.375 2°31.623 71.3 0.7 102.3 18.7
2002-02-13 10:45:22 51°8.375 2°31.624 72 0.7 104.4 18.7
2002-02-13 10:45:28 51°8.375 2°31.626 72 0.7 101.1 18.7
2002-02-13 10:45:34 51°8.375 2°31.628 72.2 0.7 104.3 18.7
2002-02-13 10:45:38 51°8.375 2°31.629 72.3 0.7 101.9 18.7
2002-02-13 10:45:42 51°8.374 2°31.63 72.2 0.7 104.3 18.7
2002-02-13 10:45:48 51°8.374 2°31.632 72.3 0.7 100.4 18.8
2002-02-13 10:45:52 51°8.374 2°31.633 72.2 0.7 101.2 18.8
2002-02-13 10:45:58 51°8.374 2°31.635 72.2 0.7 98.9 18.8
2002-02-13 10:46:02 51°8.373 2°31.636 71.8 0.7 100.5 18.8
2002-02-13 10:46:09 51°8.373 2°31.638 71.8 0.7 98.6 18.8
2002-02-13 10:46:14 51°8.373 2°31.64 71.5 0.7 99.4 18.8
2002-02-13 10:46:18 51°8.373 2°31.641 71.5 0.7 98.5 18.8
2002-02-13 10:46:22 51°8.373 2°31.642 71.2 0.7 98.2 18.9
2002-02-13 10:46:28 51°8.373 2°31.644 71.2 0.7 98.3 18.9
2002-02-13 10:46:34 51°8.373 2°31.646 71.3 0.7 97.6 18.9
2002-02-13 10:46:38 51°8.373 2°31.647 71.2 0.7 98.1 18.9
2002-02-13 10:46:42 51°8.373 2°31.648 70.8 0.7 95.6 18.8
2002-02-13 10:46:49 51°8.372 2°31.65 70.8 0.7 97.7 18.8
2002-02-13 10:46:54 51°8.372 2°31.652 70.7 0.7 96.6 18.9
2002-02-13 10:46:59 51°8.372 2°31.653 70.5 0.7 96.3 19
2002-02-13 10:47:03 51°8.372 2°31.654 70.3 0.7 95.1 19
2002-02-13 10:47:09 51°8.372 2°31.656 70.5 0.7 96 19
2002-02-13 10:47:13 51°8.372 2°31.657 70.2 0.7 96.6 19
2002-02-13 10:47:19 51°8.372 2°31.659 69.7 0.7 95.7 19.1
2002-02-13 10:47:23 51°8.372 2°31.66 69.3 0.7 93.8 19.1
2002-02-13 10:47:29 51°8.372 2°31.662 69.3 0.7 94.5 19.1
2002-02-13 10:47:33 51°8.372 2°31.663 69 0.7 93.9 19
2002-02-13 10:47:39 51°8.372 2°31.665 68.8 0.7 95.4 19
2002-02-13 10:47:43 51°8.372 2°31.666 68.5 0.7 95.2 19
2002-02-13 10:47:48 51°8.372 2°31.668 68.7 0.7 96.3 19.1
2002-02-13 10:47:54 51°8.371 2°31.669 68.2 0.7 94.5 19
2002-02-13 10:47:58 51°8.371 2°31.671 68.2 0.7 94.6 19
2002-02-13 10:48:04 51°8.371 2°31.673 68 0.7 94.2 19.1
2002-02-13 10:48:09 51°8.371 2°31.674 67.8 0.7 94.7 19.1
2002-02-13 10:48:13 51°8.371 2°31.675 68 0.7 97 19.1
2002-02-13 10:48:18 51°8.371 2°31.677 68.2 0.7 96.3 19.1
2002-02-13 10:48:22 51°8.371 2°31.678 68.5 0.8 93.7 19.1
2002-02-13 10:48:29 51°8.372 2°31.682 69.2 1 85 19.1
2002-02-13 10:48:33 51°8.372 2°31.685 69.3 1.3 82.3 19.2
2002-02-13 10:48:38 51°8.373 2°31.689 69.3 1.8 76.3 19.2
2002-02-13 10:48:44 51°8.375 2°31.697 69.2 2.4 73.6 19.2
2002-02-13 10:48:46 51°8.375 2°31.7 68.8 3.4 69.9 19.3
2002-02-13 10:48:52 51°8.378 2°31.711 67.8 4 68.4 19.3
2002-02-13 10:48:58 51°8.382 2°31.724 66.7 4.9 66.1 19.3
2002-02-13 10:49:03 51°8.386 2°31.735 65.5 5.3 64.9 19.4
2002-02-13 10:49:09 51°8.391 2°31.75 64.5 6 63 19.4
2002-02-13 10:49:12 51°8.393 2°31.758 64 6.4 62.7 19.4
2002-02-13 10:49:18 51°8.399 2°31.774 63 6.9 60.9 19.4
2002-02-13 10:49:22 51°8.403 2°31.785 62.2 7.2 60.3 19.4
2002-02-13 10:49:29 51°8.411 2°31.805 61.2 7.6 59.1 19.5
2002-02-13 10:49:33 51°8.415 2°31.817 60.7 7.8 58.2 19.5
2002-02-13 10:49:37 51°8.42 2°31.829 59.8 8.1 57.1 19.5
2002-02-13 10:49:42 51°8.427 2°31.844 59 8.3 56.2 19.5
2002-02-13 10:49:49 51°8.436 2°31.866 58 8.5 55.7 19.6
2002-02-13 10:49:53 51°8.442 2°31.879 58.2 8.6 55 19.6
2002-02-13 10:49:58 51°8.448 2°31.895 60.7 8.8 56.5 19.7
2002-02-13 10:50:02 51°8.453 2°31.909 64.7 8.9 59.1 19.7
2002-02-13 10:50:08 51°8.459 2°31.931 69.5 8.9 63.6 19.7
2002-02-13 10:50:12 51°8.463 2°31.945 74 9 67.4 19.8
2002-02-13 10:50:19 51°8.467 2°31.972 77.7 9 72.1 19.9
2002-02-13 10:50:22 51°8.469 2°31.984 80.7 9.1 74.7 19.8
2002-02-13 10:50:28 51°8.472 2°32.008 82.3 9.1 77.8 19.8
2002-02-13 10:50:33 51°8.475 2°32.028 83.7 9.2 78.7 19.8
2002-02-13 10:50:37 51°8.476 2°32.044 84 9.2 79.8 19.8
2002-02-13 10:50:42 51°8.478 2°32.064 84 9.3 80.3 19.7
2002-02-13 10:50:48 51°8.481 2°32.088 83 9.3 79.5 19.8
2002-02-13 10:50:53 51°8.484 2°32.108 82.2 9.3 79.2 19.8
2002-02-13 10:50:58 51°8.486 2°32.128 81.2 9.4 78.3 19.8
2002-02-13 10:51:02 51°8.489 2°32.145 79.5 9.4 77 19.9
2002-02-13 10:51:08 51°8.493 2°32.169 78.3 9.4 75.7 19.9
2002-02-13 10:51:13 51°8.497 2°32.188 76.3 9.4 74.1 19.9
2002-02-13 10:51:18 51°8.501 2°32.208 74.8 9.5 72.6 19.9
2002-02-13 10:51:22 51°8.505 2°32.224 72.8 9.5 70.9 20.1
2002-02-13 10:51:28 51°8.51 2°32.247 71.8 9.5 70 20.1
2002-02-13 10:51:34 51°8.517 2°32.271 70.8 9.5 67.9 20.1
2002-02-13 10:51:38 51°8.52 2°32.286 71.3 9.5 68.4 20.1
2002-02-13 10:51:42 51°8.524 2°32.302 70.3 9.5 67.5 20.1
2002-02-13 10:51:49 51°8.531 2°32.329 71.2 9.5 68 20.2
2002-02-13 10:51:54 51°8.536 2°32.349 71.2 9.6 68 20.2
2002-02-13 10:51:58 51°8.54 2°32.364 71.5 9.6 68.4 20.1
2002-02-13 10:52:02 51°8.544 2°32.38 71.7 9.6 68.6 20
2002-02-13 10:52:09 51°8.55 2°32.408 72.2 9.6 69.3 19.9
2002-02-13 10:52:14 51°8.555 2°32.428 72 9.6 69.3 19.9
2002-02-13 10:52:18 51°8.559 2°32.444 72.2 9.6 69.6 19.8
2002-02-13 10:52:22 51°8.563 2°32.459 72.2 9.6 69.4 19.9
2002-02-13 10:52:28 51°8.568 2°32.483 72.2 9.6 69.5 19.9
2002-02-13 10:52:33 51°8.573 2°32.503 71.5 9.6 69.3 20.1
2002-02-13 10:52:37 51°8.577 2°32.519 72.2 9.6 69.6 20
2002-02-13 10:52:44 51°8.583 2°32.546 71.5 9.6 69.2 20
2002-02-13 10:52:48 51°8.587 2°32.562 71.7 9.6 69.5 20.1
2002-02-13 10:52:52 51°8.591 2°32.578 71.3 9.6 69.2 20.1
2002-02-13 10:52:58 51°8.597 2°32.602 71.8 9.6 69.5 20.2
2002-02-13 10:53:01 51°8.599 2°32.614 71.5 9.6 69.2 20.3
2002-02-13 10:53:08 51°8.606 2°32.642 72 9.6 69.7 20.4
2002-02-13 10:53:13 51°8.611 2°32.662 71.7 9.6 69.5 20.6
2002-02-13 10:53:18 51°8.616 2°32.682 72 9.6 69.3 20.6
2002-02-13 10:53:22 51°8.619 2°32.697 71 9.6 69.1 20.7
2002-02-13 10:53:28 51°8.625 2°32.721 71 9.6 68.3 20.8
2002-02-13 10:53:32 51°8.629 2°32.737 71.5 9.6 69.1 20.8
2002-02-13 10:53:38 51°8.635 2°32.76 71.2 9.6 68.6 20.8
2002-02-13 10:53:41 51°8.638 2°32.772 72.2 9.6 69 20.8
2002-02-13 10:53:49 51°8.645 2°32.804 71.5 9.6 68.8 20.9
2002-02-13 10:53:53 51°8.649 2°32.82 71.8 9.6 69.3 20.8
2002-02-13 10:53:58 51°8.654 2°32.839 71.8 9.6 69.1 20.7
2002-02-13 10:54:02 51°8.658 2°32.855 71.8 9.5 69 20.4
2002-02-13 10:54:08 51°8.663 2°32.879 72.2 9.5 69.3 20.3
2002-02-13 10:54:12 51°8.667 2°32.894 72 9.5 69.2 20.2
2002-02-13 10:54:17 51°8.672 2°32.914 72.3 9.5 69.4 20.2
2002-02-13 10:54:22 51°8.676 2°32.934 72 9.5 69.6 20.1
2002-02-13 10:54:28 51°8.682 2°32.957 71.8 9.5 68.9 20.1
2002-02-13 10:54:33 51°8.687 2°32.976 72.2 9.5 69.3 20.1
2002-02-13 10:54:37 51°8.691 2°32.992 72 9.5 68.9 19.9
2002-02-13 10:54:42 51°8.695 2°33.012 72.3 9.5 69.3 19.8
2002-02-13 10:54:48 51°8.701 2°33.035 72 9.5 68.8 19.9
2002-02-13 10:54:52 51°8.704 2°33.051 72.3 9.5 69.5 19.9
2002-02-13 10:54:57 51°8.709 2°33.07 71.8 9.5 68.7 19.8
2002-02-13 10:55:03 51°8.715 2°33.094 72.5 9.5 69.3 19.8
2002-02-13 10:55:08 51°8.72 2°33.113 72.3 9.5 68.9 19.7
2002-02-13 10:55:12 51°8.723 2°33.129 72.2 9.5 69.5 19.6
2002-02-13 10:55:18 51°8.729 2°33.152 72 9.5 68.5 19.5
2002-02-13 10:55:22 51°8.733 2°33.168 71.8 9.5 69.2 19.5
2002-02-13 10:55:29 51°8.739 2°33.195 71.5 9.5 68.4 19.6
2002-02-13 10:55:33 51°8.743 2°33.211 72.2 9.5 69.4 19.6
2002-02-13 10:55:38 51°8.748 2°33.23 72 9.5 68.7 19.6
2002-02-13 10:55:44 51°8.754 2°33.254 72 9.5 68.9 19.5
2002-02-13 10:55:48 51°8.757 2°33.269 72.2 9.5 68.9 19.5
2002-02-13 10:55:53 51°8.762 2°33.289 73 9.5 69.6 19.3
2002-02-13 10:55:58 51°8.766 2°33.309 73.8 9.5 70.1 19.4
2002-02-13 10:56:02 51°8.77 2°33.325 74.3 9.5 70.9 19.2
2002-02-13 10:56:09 51°8.775 2°33.353 75.3 9.5 71.3 19.1
2002-02-13 10:56:14 51°8.779 2°33.373 75.2 9.5 72.5 19
2002-02-13 10:56:18 51°8.783 2°33.389 76 9.5 72.1 18.9
2002-02-13 10:56:22 51°8.786 2°33.405 75.8 9.5 72.6 18.7
2002-02-13 10:56:29 51°8.791 2°33.433 76 9.5 72.3 18.7
2002-02-13 10:56:32 51°8.793 2°33.445 75.8 9.6 73.2 18.9
2002-02-13 10:56:38 51°8.798 2°33.469 75.8 9.6 72.5 18.8
2002-02-13 10:56:42 51°8.801 2°33.485 75.7 9.5 72.5 18.5
2002-02-13 10:56:49 51°8.807 2°33.513 75.8 9.5 72.6 18.4
2002-02-13 10:56:53 51°8.81 2°33.53 75.5 9.6 72.3 18.4
2002-02-13 10:56:58 51°8.814 2°33.55 75.7 9.6 72.2 18.1
2002-02-13 10:57:02 51°8.817 2°33.566 75.2 9.6 72.3 18.1
2002-02-13 10:57:08 51°8.823 2°33.59 75.2 9.6 72 18
2002-02-13 10:57:14 51°8.828 2°33.614 75 9.6 72.1 17.8
2002-02-13 10:57:18 51°8.831 2°33.63 74.3 9.6 71.8 17.6
2002-02-13 10:57:22 51°8.835 2°33.646 75.2 9.6 71.4 17.4
2002-02-13 10:57:26 51°8.838 2°33.662 74.8 9.6 72 17.6
2002-02-13 10:57:33 51°8.844 2°33.69 75 9.6 71.5 17.4
2002-02-13 10:57:38 51°8.847 2°33.71 74.8 9.6 71.8 17.3
2002-02-13 10:57:42 51°8.851 2°33.726 74.8 9.6 71.5 17.2
2002-02-13 10:57:48 51°8.856 2°33.751 74.8 9.6 71.7 17
2002-02-13 10:57:54 51°8.861 2°33.775 75 9.6 71.6 16.9
2002-02-13 10:57:58 51°8.865 2°33.791 75.2 9.6 71.8 17.3
2002-02-13 10:58:02 51°8.868 2°33.807 75 9.7 72.1 17.6
2002-02-13 10:58:08 51°8.873 2°33.832 75 9.6 71.8 17.6
2002-02-13 10:58:12 51°8.876 2°33.848 75.3 9.7 72.3 17.5
2002-02-13 10:58:18 51°8.881 2°33.872 74.7 9.7 71.6 17.6
2002-02-13 10:58:22 51°8.884 2°33.888 74.7 9.7 72.1 17.6
2002-02-13 10:58:28 51°8.889 2°33.913 74.5 9.7 71.5 17.3
2002-02-13 10:58:34 51°8.895 2°33.937 74.5 9.7 71.4 16.9
2002-02-13 10:58:38 51°8.898 2°33.953 74.5 9.7 70.9 16.8
2002-02-13 10:58:42 51°8.901 2°33.969 74.3 9.7 71.2 17
2002-02-13 10:58:49 51°8.907 2°33.998 74.3 9.7 71.4 17.3
2002-02-13 10:58:54 51°8.912 2°34.018 74.5 9.7 71.4 17.4
2002-02-13 10:58:58 51°8.915 2°34.034 74.7 9.7 71.5 17.1
2002-02-13 10:59:04 51°8.92 2°34.059 74.5 9.7 71.5 17.2
2002-02-13 10:59:08 51°8.924 2°34.075 74.7 9.7 71.6 17.2
2002-02-13 10:59:12 51°8.927 2°34.091 74.7 9.7 71.4 17.1
2002-02-13 10:59:18 51°8.932 2°34.116 75 9.7 71.8 17.2
2002-02-13 10:59:22 51°8.936 2°34.132 75 9.7 71.4 17.3
2002-02-13 10:59:28 51°8.941 2°34.156 75.3 9.7 72 17
2002-02-13 10:59:32 51°8.944 2°34.172 75.2 9.7 71.3 17
2002-02-13 10:59:38 51°8.949 2°34.197 75.3 9.7 72.1 17.1
2002-02-13 10:59:42 51°8.953 2°34.213 75.5 9.7 71.7 17.1
2002-02-13 10:59:48 51°8.958 2°34.238 74.8 9.7 71.8 17.1
2002-02-13 10:59:52 51°8.961 2°34.254 74.8 9.7 71.2 17.1
2002-02-13 10:59:58 51°8.966 2°34.278 74.7 9.7 71.5 17.3
2002-02-13 11:00:02 51°8.97 2°34.295 74.8 9.7 71.6 17.3
2002-02-13 11:00:08 51°8.975 2°34.319 75.5 9.7 71.9 17.4
2002-02-13 11:00:12 51°8.978 2°34.336 77.2 9.7 72.7 17.4
2002-02-13 11:00:18 51°8.982 2°34.361 78 9.8 74.1 17.3
2002-02-13 11:00:22 51°8.985 2°34.377 79.3 9.8 74.9 17.3
2002-02-13 11:00:26 51°8.987 2°34.394 80 9.8 76.1 17.5
2002-02-13 11:00:32 51°8.991 2°34.419 81 9.8 76.8 17.5
2002-02-13 11:00:37 51°8.993 2°34.44 81.3 9.8 77.4 17.2
2002-02-13 11:00:42 51°8.996 2°34.462 82.2 9.8 78.1 17.3
2002-02-13 11:00:48 51°9 2°34.487 82 9.8 78.4 17.5
2002-02-13 11:00:54 51°9.003 2°34.512 82 9.8 78.2 17.4
2002-02-13 11:00:58 51°9.005 2°34.53 81.8 9.8 78.4 17.7
2002-02-13 11:01:02 51°9.007 2°34.547 81.2 9.8 77.9 17.9
2002-02-13 11:01:08 51°9.01 2°34.572 81 9.8 78 17.6
2002-02-13 11:01:12 51°9.013 2°34.589 80.2 9.9 77.3 18.2
2002-02-13 11:01:17 51°9.016 2°34.611 79.8 9.9 76.7 17.7
2002-02-13 11:01:22 51°9.019 2°34.632 80 9.9 76.4 17.6
2002-02-13 11:01:28 51°9.023 2°34.657 79.5 9.9 76.2 18.1
2002-02-13 11:01:33 51°9.027 2°34.678 79.3 9.8 76.4 17.9
2002-02-13 11:01:38 51°9.03 2°34.699 79.3 9.8 76.3 18.3
2002-02-13 11:01:44 51°9.034 2°34.724 79.5 9.8 76.1 17.7
2002-02-13 11:01:48 51°9.036 2°34.741 79.5 9.8 76.3 17.8
2002-02-13 11:01:54 51°9.04 2°34.766 79.7 9.8 76.3 18.1
2002-02-13 11:01:58 51°9.042 2°34.783 80.7 9.8 77.1 17.4
2002-02-13 11:02:04 51°9.046 2°34.808 81 9.8 77.1 17.9
2002-02-13 11:02:08 51°9.048 2°34.825 81.7 9.8 78 17.5
2002-02-13 11:02:12 51°9.051 2°34.842 82.2 9.8 78.4 17.8
2002-02-13 11:02:18 51°9.053 2°34.868 82.7 9.8 78.8 18.4
2002-02-13 11:02:22 51°9.055 2°34.885 83.3 9.8 79.7 17.7
2002-02-13 11:02:28 51°9.058 2°34.91 83.2 9.8 79.3 17.8
2002-02-13 11:02:33 51°9.06 2°34.931 83.2 9.8 79.7 17.6
2002-02-13 11:02:38 51°9.063 2°34.952 83 9.8 79.4 18.2
2002-02-13 11:02:42 51°9.065 2°34.969 82.3 9.7 79.7 18.2
2002-02-13 11:02:48 51°9.068 2°34.995 82.2 9.8 79 17.8
2002-02-13 11:02:53 51°9.07 2°35.016 82.3 9.8 79.1 18.2
2002-02-13 11:02:58 51°9.073 2°35.037 82.2 9.8 79 17.9
2002-02-13 11:03:02 51°9.075 2°35.054 81.8 9.8 78.9 18
2002-02-13 11:03:08 51°9.078 2°35.079 81.8 9.8 78.8 17.9
2002-02-13 11:03:14 51°9.082 2°35.104 81.7 9.8 78.5 18
2002-02-13 11:03:18 51°9.084 2°35.121 81.7 9.8 78.4 18.2
2002-02-13 11:03:22 51°9.086 2°35.138 81.3 9.7 78.4 17.8
2002-02-13 11:03:27 51°9.089 2°35.159 81.7 9.7 78.7 17.9
2002-02-13 11:03:33 51°9.092 2°35.184 81.5 9.7 78.4 17.8
2002-02-13 11:03:37 51°9.094 2°35.201 81.7 9.8 78.8 17.9
2002-02-13 11:03:43 51°9.098 2°35.227 81.3 9.8 78.1 17.9
2002-02-13 11:03:48 51°9.1 2°35.248 82 9.8 79.1 17.8
2002-02-13 11:03:53 51°9.103 2°35.269 81.7 9.8 78.7 17.8
2002-02-13 11:03:58 51°9.105 2°35.29 82.3 9.8 79.2 17.9
2002-02-13 11:04:02 51°9.107 2°35.307 82.8 9.8 79.5 17.8
2002-02-13 11:04:08 51°9.11 2°35.332 83.2 9.8 79.9 18.1
2002-02-13 11:04:13 51°9.112 2°35.354 83.8 9.8 80.4 18.1
2002-02-13 11:04:18 51°9.115 2°35.375 84.2 9.8 80.8 17.8
2002-02-13 11:04:23 51°9.117 2°35.396 84.5 9.7 81.6 18
2002-02-13 11:04:28 51°9.119 2°35.417 84.5 9.7 81.4 17.7
2002-02-13 11:04:34 51°9.121 2°35.443 84.7 9.7 81.6 18.1
2002-02-13 11:04:38 51°9.123 2°35.46 84.7 9.8 81.8 18
2002-02-13 11:04:42 51°9.125 2°35.477 83.8 9.7 81.2 17.9
2002-02-13 11:04:48 51°9.127 2°35.502 84.2 9.7 81.1 17.9
2002-02-13 11:04:53 51°9.13 2°35.524 84 9.8 80.6 17.9
2002-02-13 11:04:58 51°9.132 2°35.545 84.2 9.7 80.8 17.9
2002-02-13 11:05:02 51°9.134 2°35.562 84.2 9.8 80.5 17.9
2002-02-13 11:05:08 51°9.136 2°35.587 83.8 9.8 80.7 17.8
2002-02-13 11:05:12 51°9.138 2°35.604 83.3 9.8 80.1 17.7
2002-02-13 11:05:17 51°9.141 2°35.626 84.2 9.8 80.4 17.7
2002-02-13 11:05:23 51°9.144 2°35.651 83.5 9.9 79.9 17.7
2002-02-13 11:05:28 51°9.146 2°35.673 84 9.9 80.5 17.7
2002-02-13 11:05:33 51°9.148 2°35.694 84 9.9 80.3 17.6
2002-02-13 11:05:38 51°9.15 2°35.716 83.8 9.9 80.5 17.5
2002-02-13 11:05:43 51°9.153 2°35.737 84.7 9.9 80.3 17.5
2002-02-13 11:05:47 51°9.154 2°35.754 84.3 9.9 81.1 17.6
2002-02-13 11:05:53 51°9.157 2°35.78 84.3 9.9 80.7 17.6
2002-02-13 11:05:57 51°9.159 2°35.798 85 9.9 81.4 17.6
2002-02-13 11:06:01 51°9.161 2°35.815 84.8 9.9 81.2 17.5
2002-02-13 11:06:07 51°9.163 2°35.841 85.5 9.9 81.8 17.6
2002-02-13 11:06:12 51°9.165 2°35.862 85.3 9.9 82.1 17.5
2002-02-13 11:06:18 51°9.168 2°35.889 85.2 9.9 81.9 17.5
2002-02-13 11:06:22 51°9.169 2°35.906 84.8 9.9 81.8 17.6
2002-02-13 11:06:27 51°9.172 2°35.928 85.3 10 81.8 17.6
2002-02-13 11:06:33 51°9.174 2°35.954 85.3 10 82.2 17.6
2002-02-13 11:06:37 51°9.176 2°35.971 85.2 10 81.8 17.5
2002-02-13 11:06:42 51°9.177 2°35.993 85.3 10 82.3 17.6
2002-02-13 11:06:47 51°9.18 2°36.015 85.3 10 82.2 17.5
2002-02-13 11:06:53 51°9.182 2°36.041 84.8 10 82.3 17.5
2002-02-13 11:06:57 51°9.184 2°36.058 85 10 81.8 17.5
2002-02-13 11:07:03 51°9.186 2°36.085 84.8 10 82.2 17.5
2002-02-13 11:07:08 51°9.188 2°36.106 84.8 10 81.6 17.4
2002-02-13 11:07:13 51°9.19 2°36.128 84.8 10 81.7 17.4
2002-02-13 11:07:17 51°9.191 2°36.145 84.5 9.9 81.8 17.4
2002-02-13 11:07:22 51°9.194 2°36.167 84.3 10 81.6 17.2
2002-02-13 11:07:28 51°9.196 2°36.193 85.2 10 81.7 17.2
2002-02-13 11:07:33 51°9.198 2°36.215 84.7 10 82.1 17.1
2002-02-13 11:07:38 51°9.2 2°36.237 85.2 10 82 17.2
2002-02-13 11:07:44 51°9.203 2°36.263 85 10 81.6 17.2
2002-02-13 11:07:49 51°9.204 2°36.285 84.7 10 81.8 17.1
2002-02-13 11:07:52 51°9.206 2°36.298 85 10 82 17.1
2002-02-13 11:07:58 51°9.208 2°36.324 84.5 10 81.3 17
2002-02-13 11:08:03 51°9.21 2°36.345 84.7 10 81.8 16.9
2002-02-13 11:08:08 51°9.212 2°36.367 84.3 9.9 81.3 16.8
2002-02-13 11:08:13 51°9.214 2°36.389 84.5 9.9 81.4 16.7
2002-02-13 11:08:18 51°9.216 2°36.411 84.7 9.9 81.6 16.7
2002-02-13 11:08:23 51°9.218 2°36.432 84.5 9.9 81.3 16.6
2002-02-13 11:08:28 51°9.22 2°36.454 85 9.9 82.1 16.5
2002-02-13 11:08:32 51°9.222 2°36.471 84.8 9.9 81.8 16.4
2002-02-13 11:08:37 51°9.224 2°36.493 85.2 9.9 82 16.3
2002-02-13 11:08:43 51°9.226 2°36.519 85.3 9.9 82.4 16.2
2002-02-13 11:08:48 51°9.228 2°36.54 84.7 9.8 82 16.1
2002-02-13 11:08:53 51°9.23 2°36.562 85 9.8 82 16
2002-02-13 11:08:57 51°9.231 2°36.579 84.7 9.8 81.9 15.9
2002-02-13 11:09:03 51°9.234 2°36.605 84.7 9.8 81.5 15.8
2002-02-13 11:09:08 51°9.236 2°36.626 84.5 9.8 82 15.7
2002-02-13 11:09:13 51°9.238 2°36.647 84.8 9.8 81.7 15.6
2002-02-13 11:09:18 51°9.24 2°36.669 85.2 9.8 82 15.5
2002-02-13 11:09:23 51°9.242 2°36.69 85.3 9.8 81.9 15.4
2002-02-13 11:09:28 51°9.244 2°36.711 85.2 9.8 82.1 15.3
2002-02-13 11:09:33 51°9.246 2°36.733 84.7 9.8 81.7 15.2
2002-02-13 11:09:38 51°9.248 2°36.754 85 9.8 81.8 15.2
2002-02-13 11:09:42 51°9.25 2°36.771 84.5 9.8 81.8 15
2002-02-13 11:09:47 51°9.252 2°36.793 84.8 9.8 81.8 14.9
2002-02-13 11:09:53 51°9.255 2°36.818 85.2 9.8 81.4 14.9
2002-02-13 11:09:58 51°9.256 2°36.84 84.5 9.8 81.8 14.8
2002-02-13 11:10:03 51°9.258 2°36.861 84.8 9.8 82 14.7
2002-02-13 11:10:08 51°9.261 2°36.883 84.5 9.8 81.5 14.6
2002-02-13 11:10:12 51°9.262 2°36.9 85.7 9.9 82.6 14.6
2002-02-13 11:10:17 51°9.264 2°36.922 85.3 9.9 82.1 14.5
2002-02-13 11:10:23 51°9.265 2°36.948 86.5 9.8 82.8 14.4
2002-02-13 11:10:28 51°9.267 2°36.969 85.7 9.9 82.8 14.3
2002-02-13 11:10:33 51°9.269 2°36.991 86 9.9 83.1 14.3
2002-02-13 11:10:37 51°9.27 2°37.008 86.3 9.9 82.8 14.1
2002-02-13 11:10:43 51°9.272 2°37.035 86.8 9.9 83.5 14.1
2002-02-13 11:10:48 51°9.274 2°37.056 87 9.9 83.4 14.1
2002-02-13 11:10:51 51°9.274 2°37.069 87.2 9.9 84.1 14
2002-02-13 11:10:57 51°9.276 2°37.095 87.7 9.9 84.3 13.9
2002-02-13 11:11:03 51°9.278 2°37.121 88 9.9 84.6 13.9
2002-02-13 11:11:08 51°9.279 2°37.143 88 9.9 84.7 13.8
2002-02-13 11:11:13 51°9.28 2°37.165 88.2 9.9 84.5 13.7
2002-02-13 11:11:18 51°9.282 2°37.187 87.3 9.9 84.6 13.7
2002-02-13 11:11:22 51°9.283 2°37.204 87.2 9.9 84 13.6
2002-02-13 11:11:27 51°9.284 2°37.226 87.2 9.9 84.2 13.5
2002-02-13 11:11:32 51°9.286 2°37.247 86.8 9.9 84 13.5
2002-02-13 11:11:37 51°9.287 2°37.269 86.8 9.9 83.9 13.4
2002-02-13 11:11:42 51°9.288 2°37.291 87 9.9 84.3 13.4
2002-02-13 11:11:48 51°9.291 2°37.317 86.7 9.9 83.5 13.3
2002-02-13 11:11:53 51°9.292 2°37.339 86.3 10 83.5 13.2
2002-02-13 11:11:58 51°9.294 2°37.361 86.5 10 83.4 13.2
2002-02-13 11:12:04 51°9.295 2°37.387 86.5 10 83.7 13.2
2002-02-13 11:12:08 51°9.297 2°37.404 86.5 10 83.4 13.1
2002-02-13 11:12:13 51°9.299 2°37.426 87 10 83.4 13.1
2002-02-13 11:12:18 51°9.3 2°37.448 86.7 10 83.6 13
2002-02-13 11:12:23 51°9.302 2°37.47 86.8 10 84.1 13
2002-02-13 11:12:28 51°9.303 2°37.492 86.7 10 83.7 12.9
2002-02-13 11:12:34 51°9.305 2°37.518 86.7 10 83.6 12.9
2002-02-13 11:12:38 51°9.307 2°37.536 87.3 10 83.7 12.9
2002-02-13 11:12:42 51°9.308 2°37.553 86.8 10 84 12.8
2002-02-13 11:12:47 51°9.309 2°37.575 86.8 10 83.6 12.8
2002-02-13 11:12:53 51°9.311 2°37.602 87 10 84.5 12.8
2002-02-13 11:12:58 51°9.313 2°37.623 87.3 10 83.6 12.7
2002-02-13 11:13:02 51°9.313 2°37.641 88.3 10 85.1 12.7
2002-02-13 11:13:08 51°9.315 2°37.668 88.7 10 84.9 12.7
2002-02-13 11:13:13 51°9.316 2°37.69 89.3 10 86 12.7
2002-02-13 11:13:18 51°9.317 2°37.712 90.2 10 86.2 12.6
2002-02-13 11:13:23 51°9.317 2°37.734 90.2 10 86.6 12.6
2002-02-13 11:13:28 51°9.317 2°37.756 90.7 10.1 87.1 12.6
2002-02-13 11:13:33 51°9.318 2°37.778 90.5 10.1 86.9 12.6
2002-02-13 11:13:38 51°9.319 2°37.8 91.2 10.1 87.4 12.6
2002-02-13 11:13:43 51°9.32 2°37.823 90.7 10 87.2 12.5
2002-02-13 11:13:48 51°9.32 2°37.845 90.3 10 87.1 12.5
2002-02-13 11:13:53 51°9.321 2°37.867 89.5 10 86.6 12.5
2002-02-13 11:13:58 51°9.323 2°37.889 88.8 10.1 86 12.4
2002-02-13 11:14:02 51°9.324 2°37.907 89.2 10.1 85.8 12.4
2002-02-13 11:14:08 51°9.325 2°37.933 88.7 10 85.1 12.4
2002-02-13 11:14:13 51°9.326 2°37.955 88.7 10.1 85.6 12.4
2002-02-13 11:14:18 51°9.327 2°37.977 88.5 10.1 85 12.3
2002-02-13 11:14:23 51°9.329 2°38 88.3 10.1 85.1 12.4
2002-02-13 11:14:28 51°9.33 2°38.022 88.3 10.1 84.9 12.3
2002-02-13 11:14:33 51°9.331 2°38.044 88.2 10.1 85.1 12.3
2002-02-13 11:14:37 51°9.332 2°38.062 87.8 10.1 84.3 12.3
2002-02-13 11:14:43 51°9.333 2°38.088 88.5 10.1 85.1 12.3
2002-02-13 11:14:48 51°9.335 2°38.111 89.3 10.1 85.4 12.3
2002-02-13 11:14:53 51°9.336 2°38.133 89.7 10.1 85.7 12.3
2002-02-13 11:14:58 51°9.337 2°38.155 90.8 10.1 86.8 12.2
2002-02-13 11:15:03 51°9.338 2°38.178 91.7 10.1 87.7 12.2
2002-02-13 11:15:08 51°9.338 2°38.2 93 10.1 88.7 12.2
2002-02-13 11:15:13 51°9.338 2°38.222 94 10.1 89.8 12.1
2002-02-13 11:15:17 51°9.338 2°38.24 95.5 10.1 91 12
2002-02-13 11:15:23 51°9.337 2°38.267 96.5 10.1 91.7 12.1
2002-02-13 11:15:28 51°9.336 2°38.289 97.2 10.1 92.9 12.1
2002-02-13 11:15:33 51°9.336 2°38.311 97.3 10.1 92.4 12
2002-02-13 11:15:37 51°9.335 2°38.329 97.2 10.1 93.3 12
2002-02-13 11:15:43 51°9.334 2°38.356 97 10.1 92.4 12
2002-02-13 11:15:48 51°9.333 2°38.378 96.2 10.1 92.5 11.9
2002-02-13 11:15:53 51°9.333 2°38.401 95.8 10.1 92.1 11.9
2002-02-13 11:15:57 51°9.333 2°38.419 94.8 10.2 90.8 11.8
2002-02-13 11:16:02 51°9.333 2°38.441 94 10.2 90.8 11.8
2002-02-13 11:16:08 51°9.333 2°38.468 93.3 10.2 89.8 11.8
2002-02-13 11:16:12 51°9.334 2°38.486 92.2 10.1 88.8 11.7
2002-02-13 11:16:18 51°9.334 2°38.511 91 9.9 88 11.7
2002-02-13 11:16:22 51°9.335 2°38.528 90.3 9.4 87.5 11.6
2002-02-13 11:16:28 51°9.336 2°38.55 88.3 8.8 85.3 11.7
2002-02-13 11:16:33 51°9.338 2°38.568 86 8.3 83.6 11.6
2002-02-13 11:16:38 51°9.339 2°38.585 83.2 7.9 81.9 11.6
2002-02-13 11:16:43 51°9.341 2°38.6 81.2 7.3 79.5 11.6
2002-02-13 11:16:48 51°9.343 2°38.613 77.8 6.7 77.1 11.6
2002-02-13 11:16:53 51°9.346 2°38.624 73.2 5.6 73.6 11.6
2002-02-13 11:16:58 51°9.348 2°38.633 67.7 5 70.5 11.7
2002-02-13 11:17:04 51°9.35 2°38.642 61.2 3.9 66.7 11.7
2002-02-13 11:17:08 51°9.352 2°38.645 53 3.1 64.7 11.7
2002-02-13 11:17:14 51°9.353 2°38.65 46.3 2.5 64.8 11.7
2002-02-13 11:17:18 51°9.354 2°38.654 40.8 2 65.1 11.7
2002-02-13 11:17:23 51°9.355 2°38.657 36.8 2 64.6 11.7
2002-02-13 11:17:28 51°9.356 2°38.661 33.5 1.9 63 11.6
2002-02-13 11:17:33 51°9.357 2°38.665 30.5 1.9 62.2 11.7
2002-02-13 11:17:37 51°9.358 2°38.667 27.7 1.8 61.2 11.7
2002-02-13 11:17:42 51°9.359 2°38.671 25.8 1.8 59.9 11.7
2002-02-13 11:17:48 51°9.361 2°38.675 25.3 1.9 57.5 11.8
2002-02-13 11:17:52 51°9.362 2°38.678 25 2 56.5 11.8
2002-02-13 11:17:58 51°9.365 2°38.682 24.7 2 53.6 11.8
2002-02-13 11:18:03 51°9.366 2°38.686 25 2 53.1 11.8
2002-02-13 11:18:08 51°9.368 2°38.689 25.2 2 52.6 11.8
2002-02-13 11:18:13 51°9.37 2°38.693 25.3 2 51.9 11.6
2002-02-13 11:18:18 51°9.372 2°38.697 26 2.1 52.5 11.8
2002-02-13 11:18:23 51°9.374 2°38.7 27 2.1 51.3 11.8
2002-02-13 11:18:27 51°9.375 2°38.703 27.8 2.1 52.3 11.8
2002-02-13 11:18:32 51°9.377 2°38.707 29 2.1 52.4 11.8
2002-02-13 11:18:38 51°9.379 2°38.712 30 2.2 53.4 11.8
2002-02-13 11:18:43 51°9.381 2°38.715 31.7 2.2 53.4 11.8
2002-02-13 11:18:48 51°9.383 2°38.719 33.2 2.2 54.1 11.8
2002-02-13 11:18:53 51°9.384 2°38.723 34.8 2.2 54.7 11.8
2002-02-13 11:18:58 51°9.386 2°38.727 36.8 2.2 55.3 11.8
2002-02-13 11:19:02 51°9.388 2°38.731 39 2.3 55.7 11.8
2002-02-13 11:19:08 51°9.39 2°38.736 40.8 2.3 57.2 11.8
2002-02-13 11:19:12 51°9.392 2°38.739 42.7 2.3 56.3 11.8
2002-02-13 11:19:17 51°9.393 2°38.744 45.3 2.4 59.8 11.8
2002-02-13 11:19:24 51°9.396 2°38.751 47.3 2.4 61.1 11.8
2002-02-13 11:19:28 51°9.397 2°38.754 49.7 2.4 62.8 11.8
2002-02-13 11:19:33 51°9.399 2°38.759 52.2 2.4 62.4 11.9
2002-02-13 11:19:37 51°9.4 2°38.763 54.7 2.5 64.7 11.8
2002-02-13 11:19:42 51°9.401 2°38.768 57.5 2.5 65 11.8
2002-02-13 11:19:48 51°9.402 2°38.775 59.8 2.5 67.7 11.8
2002-02-13 11:19:54 51°9.404 2°38.781 62.3 2.6 68 11.9
2002-02-13 11:19:58 51°9.405 2°38.785 65 2.6 71 11.8
2002-02-13 11:20:02 51°9.406 2°38.79 67.8 2.6 72.8 11.8
2002-02-13 11:20:08 51°9.407 2°38.797 70.8 2.7 73.9 11.8
2002-02-13 11:20:13 51°9.408 2°38.802 73.7 2.7 76 11.9
2002-02-13 11:20:18 51°9.408 2°38.808 76.8 2.7 77.6 11.9
2002-02-13 11:20:22 51°9.409 2°38.814 79.7 2.8 79.7 11.9
2002-02-13 11:20:28 51°9.409 2°38.821 83.8 2.9 82.1 11.9
2002-02-13 11:20:33 51°9.41 2°38.828 87.3 3 84.1 11.8
2002-02-13 11:20:38 51°9.41 2°38.835 91.2 3.1 86.8 11.8
2002-02-13 11:20:42 51°9.41 2°38.841 95 3.2 89.5 11.8
2002-02-13 11:20:48 51°9.41 2°38.849 98.3 3.2 90.6 11.8
2002-02-13 11:20:53 51°9.409 2°38.856 101.2 3.2 93.1 11.8
2002-02-13 11:20:58 51°9.409 2°38.863 103.8 3.2 94.2 11.8
2002-02-13 11:21:03 51°9.408 2°38.87 105.8 3.2 95.9 11.8
2002-02-13 11:21:08 51°9.408 2°38.877 107.7 3.1 97.2 11.8
2002-02-13 11:21:13 51°9.407 2°38.883 109.8 3.1 98.8 11.7
2002-02-13 11:21:18 51°9.407 2°38.89 111.2 3.1 99 11.7
2002-02-13 11:21:23 51°9.406 2°38.897 112.7 3.1 100.7 11.7
2002-02-13 11:21:28 51°9.405 2°38.903 114.2 3 101 11.7
2002-02-13 11:21:33 51°9.404 2°38.91 115.5 3 102.7 11.7
2002-02-13 11:21:38 51°9.403 2°38.916 116.2 3 103 11.7
2002-02-13 11:21:43 51°9.402 2°38.923 116.2 3 102.6 11.7
2002-02-13 11:21:47 51°9.402 2°38.928 115.3 3 103.3 11.7
2002-02-13 11:21:52 51°9.401 2°38.934 115 2.9 102.9 11.6
2002-02-13 11:21:58 51°9.4 2°38.942 114 2.9 102.4 11.6
2002-02-13 11:22:02 51°9.399 2°38.947 113.8 2.9 102.4 11.6
2002-02-13 11:22:08 51°9.398 2°38.954 114.2 2.9 102.7 11.6
2002-02-13 11:22:13 51°9.397 2°38.961 114.8 2.9 102.2 11.7
2002-02-13 11:22:18 51°9.396 2°38.967 116 2.9 103.6 11.6
2002-02-13 11:22:23 51°9.395 2°38.973 117.7 2.8 104 11.6
2002-02-13 11:22:28 51°9.394 2°38.979 119.2 2.8 103.9 11.6
2002-02-13 11:22:33 51°9.393 2°38.985 121.2 2.8 105.2 11.6
2002-02-13 11:22:38 51°9.392 2°38.991 123.2 2.8 105.1 11.6
2002-02-13 11:22:43 51°9.391 2°38.996 125 2.7 106.7 11.5
2002-02-13 11:22:48 51°9.39 2°39.002 127.5 2.7 107.6 11.5
2002-02-13 11:22:53 51°9.389 2°39.007 129.7 2.7 109.1 11.5
2002-02-13 11:22:58 51°9.387 2°39.013 132.2 2.7 111 11.5
2002-02-13 11:23:02 51°9.386 2°39.018 134.7 2.7 112.7 11.5
2002-02-13 11:23:08 51°9.384 2°39.024 138.2 2.8 115.9 11.5
2002-02-13 11:23:13 51°9.382 2°39.03 141.8 2.8 117.8 11.5
2002-02-13 11:23:17 51°9.381 2°39.034 146.2 2.8 121.1 11.5
2002-02-13 11:23:23 51°9.378 2°39.04 150.3 2.9 123.5 11.5
2002-02-13 11:23:28 51°9.375 2°39.045 154.3 2.8 126.8 11.4
2002-02-13 11:23:32 51°9.373 2°39.048 158.7 2.8 129.8 11.4
2002-02-13 11:23:38 51°9.37 2°39.054 162.7 2.8 132.7 11.4
2002-02-13 11:23:42 51°9.368 2°39.057 167 2.8 135.7 11.4
2002-02-13 11:23:47 51°9.365 2°39.061 170.5 2.9 140.2 11.4
2002-02-13 11:23:53 51°9.361 2°39.066 173.7 2.9 142.9 11.3
2002-02-13 11:23:58 51°9.357 2°39.069 175.8 3.1 147.7 11.4
2002-02-13 11:24:03 51°9.353 2°39.072 178 3.3 151.6 11.3
2002-02-13 11:24:08 51°9.348 2°39.075 180 3.5 155.1 11.3
2002-02-13 11:24:12 51°9.344 2°39.078 182.3 3.6 157.6 11.3
2002-02-13 11:24:17 51°9.339 2°39.08 184.3 3.8 161 11.3
2002-02-13 11:24:23 51°9.333 2°39.083 186.5 3.9 163.6 11.3
2002-02-13 11:24:28 51°9.327 2°39.085 188.8 4 166.4 11.2
2002-02-13 11:24:33 51°9.322 2°39.086 191.7 4 169.2 11.2
2002-02-13 11:24:37 51°9.317 2°39.087 195.2 4.1 172.9 11.1
2002-02-13 11:24:41 51°9.313 2°39.087 197.3 4.1 176.2 11.1
2002-02-13 11:24:47 51°9.306 2°39.087 199.7 4.2 179.4 11.1
2002-02-13 11:24:52 51°9.3 2°39.087 201.5 4.2 181.5 11.1
2002-02-13 11:24:57 51°9.294 2°39.086 203.8 4.2 184.9 11
2002-02-13 11:25:03 51°9.287 2°39.084 206 4.3 187 11
2002-02-13 11:25:08 51°9.281 2°39.082 207.5 4.3 190 11
2002-02-13 11:25:13 51°9.275 2°39.081 210 4.4 190.9 11
2002-02-13 11:25:18 51°9.27 2°39.078 211.3 4.3 193.9 11
2002-02-13 11:25:22 51°9.265 2°39.075 213.8 4.3 195.8 11
2002-02-13 11:25:28 51°9.258 2°39.071 216 4.4 198.5 10.9
2002-02-13 11:25:33 51°9.253 2°39.068 217.8 4.4 200.8 10.9
2002-02-13 11:25:38 51°9.247 2°39.063 220.3 4.3 203.8 10.9
2002-02-13 11:25:43 51°9.242 2°39.059 223.7 4.3 206.2 10.9
2002-02-13 11:25:48 51°9.237 2°39.054 227.2 4.2 211.3 10.8
2002-02-13 11:25:53 51°9.233 2°39.048 231.2 4 215.5 10.9
2002-02-13 11:25:58 51°9.229 2°39.044 233.7 3.7 217.5 10.8
2002-02-13 11:26:03 51°9.226 2°39.039 236.3 3.4 222 10.9
2002-02-13 11:26:08 51°9.223 2°39.034 238.8 3.2 222.2 10.9
2002-02-13 11:26:13 51°9.22 2°39.03 241 3.1 224.3 10.9
2002-02-13 11:26:18 51°9.217 2°39.025 243 2.8 226.4 10.8
2002-02-13 11:26:22 51°9.216 2°39.022 244.8 2.7 228.4 10.9
2002-02-13 11:26:28 51°9.213 2°39.017 246.8 2.5 230 10.9
2002-02-13 11:26:32 51°9.212 2°39.013 248.2 2.3 233.1 10.9
2002-02-13 11:26:38 51°9.21 2°39.009 250 2.2 234.2 10.9
2002-02-13 11:26:42 51°9.209 2°39.006 251.3 2 237 10.9
2002-02-13 11:26:48 51°9.207 2°39.002 253 1.9 238.2 10.9
2002-02-13 11:26:53 51°9.206 2°38.999 254.5 1.8 239.4 10.9
2002-02-13 11:26:58 51°9.205 2°38.995 256 1.7 241.7 10.9
2002-02-13 11:27:02 51°9.204 2°38.993 257.7 1.6 244.1 10.9